CPX437 Details

Departure: Cincinnati/Northern Kentucky International Airport (KCVG)
Arrival: Philadelphia International Airport (KPHL)
Route: ROCKT9 AHTIY JST BOJID2


Current Weather Information
KCVG 252340Z 35014KT 10SM BKN032 07/02 A3012 RMK AO2 T00720017
KPHL 252338Z 36013KT 10SM -RA SCT031 OVC038 06/03 A3007 RMK AO2 P0002 T00610028 VISNO W $